sensor_id;sensor_type;location;lat;lon;timestamp;P1;durP1;ratioP1;P2;durP2;ratioP2
18316;SDS011;9284;52.298;21.164;2023-08-17T00:01:44;12.82;;;9.45;;
18316;SDS011;9284;52.298;21.164;2023-08-17T00:04:13;15.02;;;10.32;;
18316;SDS011;9284;52.298;21.164;2023-08-17T00:06:41;13.05;;;8.70;;
18316;SDS011;9284;52.298;21.164;2023-08-17T00:09:10;11.70;;;9.77;;
18316;SDS011;9284;52.298;21.164;2023-08-17T00:11:39;13.80;;;10.13;;
18316;SDS011;9284;52.298;21.164;2023-08-17T00:14:08;12.63;;;9.80;;
18316;SDS011;9284;52.298;21.164;2023-08-17T00:16:37;13.15;;;9.75;;
18316;SDS011;9284;52.298;21.164;2023-08-17T00:19:06;14.32;;;9.05;;
18316;SDS011;9284;52.298;21.164;2023-08-17T00:21:35;14.88;;;9.75;;
18316;SDS011;9284;52.298;21.164;2023-08-17T00:24:03;13.48;;;10.02;;
18316;SDS011;9284;52.298;21.164;2023-08-17T00:26:32;14.77;;;9.63;;
18316;SDS011;9284;52.298;21.164;2023-08-17T00:29:00;15.65;;;9.70;;
18316;SDS011;9284;52.298;21.164;2023-08-17T00:31:30;17.13;;;10.15;;
18316;SDS011;9284;52.298;21.164;2023-08-17T00:33:58;14.63;;;9.65;;
18316;SDS011;9284;52.298;21.164;2023-08-17T00:36:27;13.13;;;10.23;;
18316;SDS011;9284;52.298;21.164;2023-08-17T00:38:55;14.23;;;10.38;;
18316;SDS011;9284;52.298;21.164;2023-08-17T00:41:23;11.93;;;10.13;;
18316;SDS011;9284;52.298;21.164;2023-08-17T00:43:52;12.23;;;9.77;;
18316;SDS011;9284;52.298;21.164;2023-08-17T00:46:20;12.27;;;10.32;;
18316;SDS011;9284;52.298;21.164;2023-08-17T00:48:51;13.25;;;9.40;;
18316;SDS011;9284;52.298;21.164;2023-08-17T00:51:21;17.25;;;9.80;;
18316;SDS011;9284;52.298;21.164;2023-08-17T00:53:51;11.52;;;9.77;;
18316;SDS011;9284;52.298;21.164;2023-08-17T00:56:20;12.07;;;9.57;;
18316;SDS011;9284;52.298;21.164;2023-08-17T00:58:49;12.60;;;10.55;;
18316;SDS011;9284;52.298;21.164;2023-08-17T01:01:19;14.02;;;10.00;;
18316;SDS011;9284;52.298;21.164;2023-08-17T01:03:48;12.88;;;10.10;;
18316;SDS011;9284;52.298;21.164;2023-08-17T01:06:18;12.25;;;10.35;;
18316;SDS011;9284;52.298;21.164;2023-08-17T01:08:46;13.00;;;10.20;;
18316;SDS011;9284;52.298;21.164;2023-08-17T01:11:19;13.35;;;9.65;;
18316;SDS011;9284;52.298;21.164;2023-08-17T01:13:55;15.45;;;10.60;;
18316;SDS011;9284;52.298;21.164;2023-08-17T01:16:28;15.23;;;9.68;;
18316;SDS011;9284;52.298;21.164;2023-08-17T01:18:58;13.55;;;9.98;;
18316;SDS011;9284;52.298;21.164;2023-08-17T01:21:33;11.88;;;9.55;;
18316;SDS011;9284;52.298;21.164;2023-08-17T01:24:06;14.18;;;10.63;;
18316;SDS011;9284;52.298;21.164;2023-08-17T01:26:35;12.85;;;10.05;;
18316;SDS011;9284;52.298;21.164;2023-08-17T01:29:04;14.07;;;10.73;;
18316;SDS011;9284;52.298;21.164;2023-08-17T01:31:34;14.35;;;10.73;;
18316;SDS011;9284;52.298;21.164;2023-08-17T01:34:08;14.15;;;10.35;;
18316;SDS011;9284;52.298;21.164;2023-08-17T01:36:42;14.35;;;11.40;;
18316;SDS011;9284;52.298;21.164;2023-08-17T01:39:15;12.88;;;10.75;;
18316;SDS011;9284;52.298;21.164;2023-08-17T01:41:45;13.35;;;10.60;;
18316;SDS011;9284;52.298;21.164;2023-08-17T01:44:14;13.57;;;10.40;;
18316;SDS011;9284;52.298;21.164;2023-08-17T01:46:43;14.93;;;10.27;;
18316;SDS011;9284;52.298;21.164;2023-08-17T01:49:12;11.85;;;10.55;;
18316;SDS011;9284;52.298;21.164;2023-08-17T01:51:40;13.95;;;10.18;;
18316;SDS011;9284;52.298;21.164;2023-08-17T01:54:08;12.38;;;10.23;;
18316;SDS011;9284;52.298;21.164;2023-08-17T01:56:38;13.88;;;10.20;;
18316;SDS011;9284;52.298;21.164;2023-08-17T01:59:06;11.32;;;10.10;;
18316;SDS011;9284;52.298;21.164;2023-08-17T02:01:35;13.95;;;10.70;;
18316;SDS011;9284;52.298;21.164;2023-08-17T02:04:03;14.18;;;11.10;;
18316;SDS011;9284;52.298;21.164;2023-08-17T02:06:32;14.25;;;11.05;;
18316;SDS011;9284;52.298;21.164;2023-08-17T02:09:00;13.38;;;10.38;;
18316;SDS011;9284;52.298;21.164;2023-08-17T02:11:28;15.20;;;10.63;;
18316;SDS011;9284;52.298;21.164;2023-08-17T02:13:58;16.80;;;10.35;;
18316;SDS011;9284;52.298;21.164;2023-08-17T02:16:26;14.63;;;10.77;;
18316;SDS011;9284;52.298;21.164;2023-08-17T02:18:54;14.48;;;9.93;;
18316;SDS011;9284;52.298;21.164;2023-08-17T02:21:24;13.48;;;10.98;;
18316;SDS011;9284;52.298;21.164;2023-08-17T02:23:52;15.23;;;10.55;;
18316;SDS011;9284;52.298;21.164;2023-08-17T02:26:22;12.18;;;10.27;;
18316;SDS011;9284;52.298;21.164;2023-08-17T02:28:50;12.98;;;11.05;;
18316;SDS011;9284;52.298;21.164;2023-08-17T02:31:20;14.40;;;10.63;;
18316;SDS011;9284;52.298;21.164;2023-08-17T02:33:48;13.88;;;10.85;;
18316;SDS011;9284;52.298;21.164;2023-08-17T02:36:16;14.90;;;10.68;;
18316;SDS011;9284;52.298;21.164;2023-08-17T02:38:44;18.25;;;11.07;;
18316;SDS011;9284;52.298;21.164;2023-08-17T02:41:13;15.73;;;10.65;;
18316;SDS011;9284;52.298;21.164;2023-08-17T02:43:41;15.77;;;10.73;;
18316;SDS011;9284;52.298;21.164;2023-08-17T02:46:11;16.42;;;11.02;;
18316;SDS011;9284;52.298;21.164;2023-08-17T02:48:41;17.35;;;10.70;;
18316;SDS011;9284;52.298;21.164;2023-08-17T02:51:09;13.68;;;10.65;;
18316;SDS011;9284;52.298;21.164;2023-08-17T02:53:38;18.40;;;11.30;;
18316;SDS011;9284;52.298;21.164;2023-08-17T02:56:06;16.05;;;10.73;;
18316;SDS011;9284;52.298;21.164;2023-08-17T02:58:38;17.45;;;11.43;;
18316;SDS011;9284;52.298;21.164;2023-08-17T03:01:07;14.98;;;10.90;;
18316;SDS011;9284;52.298;21.164;2023-08-17T03:03:36;13.70;;;10.82;;
18316;SDS011;9284;52.298;21.164;2023-08-17T03:06:06;17.52;;;11.25;;
18316;SDS011;9284;52.298;21.164;2023-08-17T03:08:35;14.02;;;10.68;;
18316;SDS011;9284;52.298;21.164;2023-08-17T03:11:03;19.85;;;11.50;;
18316;SDS011;9284;52.298;21.164;2023-08-17T03:13:33;14.52;;;11.20;;
18316;SDS011;9284;52.298;21.164;2023-08-17T03:16:02;13.95;;;11.30;;
18316;SDS011;9284;52.298;21.164;2023-08-17T03:18:30;17.88;;;11.10;;
18316;SDS011;9284;52.298;21.164;2023-08-17T03:20:59;15.30;;;10.63;;
18316;SDS011;9284;52.298;21.164;2023-08-17T03:23:29;15.52;;;11.85;;
18316;SDS011;9284;52.298;21.164;2023-08-17T03:25:57;17.02;;;11.48;;
18316;SDS011;9284;52.298;21.164;2023-08-17T03:28:26;18.13;;;10.75;;
18316;SDS011;9284;52.298;21.164;2023-08-17T03:30:55;16.08;;;11.23;;
18316;SDS011;9284;52.298;21.164;2023-08-17T03:33:24;18.33;;;11.23;;
18316;SDS011;9284;52.298;21.164;2023-08-17T03:35:52;16.70;;;11.95;;
18316;SDS011;9284;52.298;21.164;2023-08-17T03:38:21;18.00;;;12.20;;
18316;SDS011;9284;52.298;21.164;2023-08-17T03:40:50;18.92;;;10.95;;
18316;SDS011;9284;52.298;21.164;2023-08-17T03:43:21;17.75;;;11.93;;
18316;SDS011;9284;52.298;21.164;2023-08-17T03:45:50;14.13;;;10.88;;
18316;SDS011;9284;52.298;21.164;2023-08-17T03:48:18;17.35;;;10.70;;
18316;SDS011;9284;52.298;21.164;2023-08-17T03:50:50;16.45;;;11.38;;
18316;SDS011;9284;52.298;21.164;2023-08-17T03:53:19;15.05;;;11.93;;
18316;SDS011;9284;52.298;21.164;2023-08-17T03:55:47;16.10;;;11.77;;
18316;SDS011;9284;52.298;21.164;2023-08-17T03:58:17;16.50;;;11.57;;
18316;SDS011;9284;52.298;21.164;2023-08-17T04:00:48;16.95;;;11.32;;
18316;SDS011;9284;52.298;21.164;2023-08-17T04:03:23;14.20;;;10.60;;
18316;SDS011;9284;52.298;21.164;2023-08-17T04:05:51;17.45;;;10.93;;
18316;SDS011;9284;52.298;21.164;2023-08-17T04:08:19;17.55;;;11.40;;
18316;SDS011;9284;52.298;21.164;2023-08-17T04:10:48;16.45;;;11.50;;
18316;SDS011;9284;52.298;21.164;2023-08-17T04:13:18;13.85;;;11.68;;
18316;SDS011;9284;52.298;21.164;2023-08-17T04:15:46;15.70;;;11.45;;
18316;SDS011;9284;52.298;21.164;2023-08-17T04:18:14;14.45;;;11.25;;
18316;SDS011;9284;52.298;21.164;2023-08-17T04:20:42;14.70;;;10.52;;
18316;SDS011;9284;52.298;21.164;2023-08-17T04:23:13;19.08;;;11.07;;
18316;SDS011;9284;52.298;21.164;2023-08-17T04:25:41;17.50;;;11.00;;
18316;SDS011;9284;52.298;21.164;2023-08-17T04:28:11;16.98;;;11.30;;
18316;SDS011;9284;52.298;21.164;2023-08-17T04:30:44;14.35;;;10.90;;
18316;SDS011;9284;52.298;21.164;2023-08-17T04:33:12;15.93;;;11.15;;
18316;SDS011;9284;52.298;21.164;2023-08-17T04:35:40;18.48;;;11.55;;
18316;SDS011;9284;52.298;21.164;2023-08-17T04:38:09;14.15;;;11.60;;
18316;SDS011;9284;52.298;21.164;2023-08-17T04:40:37;16.65;;;10.52;;
18316;SDS011;9284;52.298;21.164;2023-08-17T04:43:07;15.15;;;10.48;;
18316;SDS011;9284;52.298;21.164;2023-08-17T04:45:37;14.40;;;11.23;;
18316;SDS011;9284;52.298;21.164;2023-08-17T04:48:07;16.65;;;11.65;;
18316;SDS011;9284;52.298;21.164;2023-08-17T04:50:36;14.60;;;10.40;;
18316;SDS011;9284;52.298;21.164;2023-08-17T04:53:04;15.27;;;11.13;;
18316;SDS011;9284;52.298;21.164;2023-08-17T04:55:33;16.77;;;11.10;;
18316;SDS011;9284;52.298;21.164;2023-08-17T04:58:02;13.98;;;10.90;;
18316;SDS011;9284;52.298;21.164;2023-08-17T05:00:30;14.48;;;11.07;;
18316;SDS011;9284;52.298;21.164;2023-08-17T05:03:00;17.40;;;11.18;;
18316;SDS011;9284;52.298;21.164;2023-08-17T05:05:34;13.48;;;10.45;;
18316;SDS011;9284;52.298;21.164;2023-08-17T05:08:07;14.00;;;10.30;;
18316;SDS011;9284;52.298;21.164;2023-08-17T05:10:36;15.23;;;10.68;;
18316;SDS011;9284;52.298;21.164;2023-08-17T05:13:05;15.52;;;10.88;;
18316;SDS011;9284;52.298;21.164;2023-08-17T05:15:33;14.13;;;11.18;;
18316;SDS011;9284;52.298;21.164;2023-08-17T05:18:04;16.15;;;10.98;;
18316;SDS011;9284;52.298;21.164;2023-08-17T05:20:34;12.90;;;10.50;;
18316;SDS011;9284;52.298;21.164;2023-08-17T05:23:03;14.00;;;10.25;;
18316;SDS011;9284;52.298;21.164;2023-08-17T05:25:31;15.13;;;10.63;;
18316;SDS011;9284;52.298;21.164;2023-08-17T05:28:00;14.93;;;10.80;;
18316;SDS011;9284;52.298;21.164;2023-08-17T05:30:28;14.23;;;11.27;;
18316;SDS011;9284;52.298;21.164;2023-08-17T05:32:57;13.13;;;10.57;;
18316;SDS011;9284;52.298;21.164;2023-08-17T05:35:26;17.65;;;11.68;;
18316;SDS011;9284;52.298;21.164;2023-08-17T05:37:56;14.10;;;10.70;;
18316;SDS011;9284;52.298;21.164;2023-08-17T05:40:25;14.95;;;10.57;;
18316;SDS011;9284;52.298;21.164;2023-08-17T05:42:53;12.05;;;10.38;;
18316;SDS011;9284;52.298;21.164;2023-08-17T05:45:21;12.55;;;9.77;;
18316;SDS011;9284;52.298;21.164;2023-08-17T05:47:50;17.75;;;11.27;;
18316;SDS011;9284;52.298;21.164;2023-08-17T05:50:19;16.30;;;10.55;;
18316;SDS011;9284;52.298;21.164;2023-08-17T05:52:47;11.65;;;10.10;;
18316;SDS011;9284;52.298;21.164;2023-08-17T05:55:17;14.02;;;9.80;;
18316;SDS011;9284;52.298;21.164;2023-08-17T05:57:45;13.63;;;9.93;;
18316;SDS011;9284;52.298;21.164;2023-08-17T06:00:14;15.32;;;10.55;;
18316;SDS011;9284;52.298;21.164;2023-08-17T06:02:42;11.95;;;10.00;;
18316;SDS011;9284;52.298;21.164;2023-08-17T06:05:16;17.00;;;9.63;;
18316;SDS011;9284;52.298;21.164;2023-08-17T06:07:45;12.15;;;9.30;;
18316;SDS011;9284;52.298;21.164;2023-08-17T06:10:13;12.68;;;9.13;;
18316;SDS011;9284;52.298;21.164;2023-08-17T06:12:43;14.43;;;9.30;;
18316;SDS011;9284;52.298;21.164;2023-08-17T06:15:13;11.65;;;9.82;;
18316;SDS011;9284;52.298;21.164;2023-08-17T06:17:41;13.20;;;9.07;;
18316;SDS011;9284;52.298;21.164;2023-08-17T06:20:10;14.15;;;9.05;;
18316;SDS011;9284;52.298;21.164;2023-08-17T06:22:40;13.00;;;9.73;;
18316;SDS011;9284;52.298;21.164;2023-08-17T06:25:09;12.60;;;9.35;;
18316;SDS011;9284;52.298;21.164;2023-08-17T06:27:37;16.83;;;9.98;;
18316;SDS011;9284;52.298;21.164;2023-08-17T06:30:09;11.15;;;9.60;;
18316;SDS011;9284;52.298;21.164;2023-08-17T06:32:38;14.07;;;8.63;;
18316;SDS011;9284;52.298;21.164;2023-08-17T06:35:07;11.45;;;8.48;;
18316;SDS011;9284;52.298;21.164;2023-08-17T06:37:36;11.50;;;8.73;;
18316;SDS011;9284;52.298;21.164;2023-08-17T06:40:05;12.25;;;8.65;;
18316;SDS011;9284;52.298;21.164;2023-08-17T06:42:35;11.00;;;8.48;;
18316;SDS011;9284;52.298;21.164;2023-08-17T06:45:05;11.38;;;8.65;;
18316;SDS011;9284;52.298;21.164;2023-08-17T06:47:37;10.40;;;8.75;;
18316;SDS011;9284;52.298;21.164;2023-08-17T06:50:06;12.57;;;8.55;;
18316;SDS011;9284;52.298;21.164;2023-08-17T06:52:38;11.05;;;8.40;;
18316;SDS011;9284;52.298;21.164;2023-08-17T06:55:07;13.27;;;8.18;;
18316;SDS011;9284;52.298;21.164;2023-08-17T06:57:36;11.75;;;8.23;;
18316;SDS011;9284;52.298;21.164;2023-08-17T07:00:06;12.90;;;8.77;;
18316;SDS011;9284;52.298;21.164;2023-08-17T07:02:37;9.10;;;8.13;;
18316;SDS011;9284;52.298;21.164;2023-08-17T07:05:19;11.60;;;8.40;;
18316;SDS011;9284;52.298;21.164;2023-08-17T07:07:47;11.85;;;8.30;;
18316;SDS011;9284;52.298;21.164;2023-08-17T07:10:16;10.02;;;7.80;;
18316;SDS011;9284;52.298;21.164;2023-08-17T07:12:45;11.30;;;8.15;;
18316;SDS011;9284;52.298;21.164;2023-08-17T07:15:15;10.32;;;8.07;;
18316;SDS011;9284;52.298;21.164;2023-08-17T07:17:43;11.63;;;8.10;;
18316;SDS011;9284;52.298;21.164;2023-08-17T07:20:12;9.98;;;8.40;;
18316;SDS011;9284;52.298;21.164;2023-08-17T07:22:43;11.43;;;8.60;;
18316;SDS011;9284;52.298;21.164;2023-08-17T07:25:11;10.90;;;7.05;;
18316;SDS011;9284;52.298;21.164;2023-08-17T07:27:40;12.05;;;7.28;;
18316;SDS011;9284;52.298;21.164;2023-08-17T07:30:10;11.63;;;7.75;;
18316;SDS011;9284;52.298;21.164;2023-08-17T07:32:40;11.38;;;7.25;;
18316;SDS011;9284;52.298;21.164;2023-08-17T07:35:09;9.82;;;7.75;;
18316;SDS011;9284;52.298;21.164;2023-08-17T07:37:37;8.50;;;7.60;;
18316;SDS011;9284;52.298;21.164;2023-08-17T07:40:06;9.65;;;7.28;;
18316;SDS011;9284;52.298;21.164;2023-08-17T07:42:36;10.50;;;7.03;;
18316;SDS011;9284;52.298;21.164;2023-08-17T07:45:05;9.23;;;7.13;;
18316;SDS011;9284;52.298;21.164;2023-08-17T07:47:34;9.48;;;7.47;;
18316;SDS011;9284;52.298;21.164;2023-08-17T07:50:06;12.43;;;7.60;;
18316;SDS011;9284;52.298;21.164;2023-08-17T07:52:35;11.77;;;7.53;;
18316;SDS011;9284;52.298;21.164;2023-08-17T07:55:04;9.65;;;7.80;;
18316;SDS011;9284;52.298;21.164;2023-08-17T07:57:32;13.77;;;8.13;;
18316;SDS011;9284;52.298;21.164;2023-08-17T08:00:01;9.10;;;7.88;;
18316;SDS011;9284;52.298;21.164;2023-08-17T08:02:33;9.48;;;7.57;;
18316;SDS011;9284;52.298;21.164;2023-08-17T08:05:02;10.55;;;7.93;;
18316;SDS011;9284;52.298;21.164;2023-08-17T08:07:32;10.02;;;7.85;;
18316;SDS011;9284;52.298;21.164;2023-08-17T08:10:01;14.73;;;8.32;;
18316;SDS011;9284;52.298;21.164;2023-08-17T08:12:29;12.23;;;7.82;;
18316;SDS011;9284;52.298;21.164;2023-08-17T08:14:58;11.80;;;7.57;;
18316;SDS011;9284;52.298;21.164;2023-08-17T08:17:27;13.40;;;7.80;;
18316;SDS011;9284;52.298;21.164;2023-08-17T08:19:56;9.65;;;7.47;;
18316;SDS011;9284;52.298;21.164;2023-08-17T08:22:26;10.52;;;7.63;;
18316;SDS011;9284;52.298;21.164;2023-08-17T08:24:57;9.27;;;7.85;;
18316;SDS011;9284;52.298;21.164;2023-08-17T08:27:26;12.90;;;8.07;;
18316;SDS011;9284;52.298;21.164;2023-08-17T08:29:55;10.00;;;7.85;;
18316;SDS011;9284;52.298;21.164;2023-08-17T08:32:24;12.10;;;7.70;;
18316;SDS011;9284;52.298;21.164;2023-08-17T08:34:54;9.30;;;7.63;;
18316;SDS011;9284;52.298;21.164;2023-08-17T08:37:23;10.15;;;7.28;;
18316;SDS011;9284;52.298;21.164;2023-08-17T08:39:53;11.30;;;7.63;;
18316;SDS011;9284;52.298;21.164;2023-08-17T08:42:23;9.80;;;7.50;;
18316;SDS011;9284;52.298;21.164;2023-08-17T08:44:53;11.75;;;7.63;;
18316;SDS011;9284;52.298;21.164;2023-08-17T08:47:21;9.52;;;7.88;;
18316;SDS011;9284;52.298;21.164;2023-08-17T08:49:55;10.27;;;7.97;;
18316;SDS011;9284;52.298;21.164;2023-08-17T08:52:31;10.50;;;7.90;;
18316;SDS011;9284;52.298;21.164;2023-08-17T08:55:10;15.80;;;7.78;;
18316;SDS011;9284;52.298;21.164;2023-08-17T08:57:44;13.48;;;7.95;;
18316;SDS011;9284;52.298;21.164;2023-08-17T09:00:17;11.23;;;8.20;;
18316;SDS011;9284;52.298;21.164;2023-08-17T09:02:47;11.50;;;8.40;;
18316;SDS011;9284;52.298;21.164;2023-08-17T09:05:16;9.00;;;7.30;;
18316;SDS011;9284;52.298;21.164;2023-08-17T09:07:45;12.57;;;8.88;;
18316;SDS011;9284;52.298;21.164;2023-08-17T09:10:16;13.48;;;8.38;;
18316;SDS011;9284;52.298;21.164;2023-08-17T09:12:46;15.05;;;9.75;;
18316;SDS011;9284;52.298;21.164;2023-08-17T09:15:16;9.77;;;8.77;;
18316;SDS011;9284;52.298;21.164;2023-08-17T09:17:44;18.35;;;8.48;;
18316;SDS011;9284;52.298;21.164;2023-08-17T09:23:09;12.30;;;9.43;;
18316;SDS011;9284;52.298;21.164;2023-08-17T09:25:40;13.10;;;8.80;;
18316;SDS011;9284;52.298;21.164;2023-08-17T09:28:11;12.25;;;8.77;;
18316;SDS011;9284;52.298;21.164;2023-08-17T09:30:50;10.05;;;8.98;;
18316;SDS011;9284;52.298;21.164;2023-08-17T09:33:20;15.00;;;9.13;;
18316;SDS011;9284;52.298;21.164;2023-08-17T09:35:50;22.10;;;9.93;;
18316;SDS011;9284;52.298;21.164;2023-08-17T09:38:24;13.15;;;9.70;;
18316;SDS011;9284;52.298;21.164;2023-08-17T09:40:54;12.35;;;9.57;;
18316;SDS011;9284;52.298;21.164;2023-08-17T09:43:23;12.35;;;9.50;;
18316;SDS011;9284;52.298;21.164;2023-08-17T09:45:54;12.00;;;9.10;;
18316;SDS011;9284;52.298;21.164;2023-08-17T09:48:23;14.18;;;9.25;;
18316;SDS011;9284;52.298;21.164;2023-08-17T09:50:58;10.77;;;9.68;;
18316;SDS011;9284;52.298;21.164;2023-08-17T09:53:29;12.05;;;9.18;;
18316;SDS011;9284;52.298;21.164;2023-08-17T09:56:02;12.85;;;9.57;;
18316;SDS011;9284;52.298;21.164;2023-08-17T09:58:35;12.23;;;8.90;;
18316;SDS011;9284;52.298;21.164;2023-08-17T10:01:04;11.57;;;8.82;;
18316;SDS011;9284;52.298;21.164;2023-08-17T10:03:33;12.05;;;8.52;;
18316;SDS011;9284;52.298;21.164;2023-08-17T10:06:04;9.82;;;7.90;;
18316;SDS011;9284;52.298;21.164;2023-08-17T10:08:33;10.90;;;8.15;;
18316;SDS011;9284;52.298;21.164;2023-08-17T10:11:10;10.30;;;7.93;;
18316;SDS011;9284;52.298;21.164;2023-08-17T10:13:46;10.52;;;7.63;;
18316;SDS011;9284;52.298;21.164;2023-08-17T10:16:21;10.82;;;8.18;;
18316;SDS011;9284;52.298;21.164;2023-08-17T10:18:54;11.05;;;7.45;;
18316;SDS011;9284;52.298;21.164;2023-08-17T10:21:27;7.47;;;6.68;;
18316;SDS011;9284;52.298;21.164;2023-08-17T10:23:57;9.77;;;6.72;;
18316;SDS011;9284;52.298;21.164;2023-08-17T10:26:25;10.80;;;6.88;;
18316;SDS011;9284;52.298;21.164;2023-08-17T10:28:56;10.85;;;6.70;;
18316;SDS011;9284;52.298;21.164;2023-08-17T10:31:37;11.20;;;6.25;;
18316;SDS011;9284;52.298;21.164;2023-08-17T10:34:06;8.50;;;7.05;;
18316;SDS011;9284;52.298;21.164;2023-08-17T10:36:36;7.22;;;6.53;;
18316;SDS011;9284;52.298;21.164;2023-08-17T10:39:18;9.93;;;5.55;;
18316;SDS011;9284;52.298;21.164;2023-08-17T10:41:55;8.02;;;5.25;;
18316;SDS011;9284;52.298;21.164;2023-08-17T10:44:43;9.30;;;6.65;;
18316;SDS011;9284;52.298;21.164;2023-08-17T10:47:19;7.57;;;5.85;;
18316;SDS011;9284;52.298;21.164;2023-08-17T10:49:49;7.63;;;5.70;;
18316;SDS011;9284;52.298;21.164;2023-08-17T10:52:25;9.02;;;5.45;;
18316;SDS011;9284;52.298;21.164;2023-08-17T10:54:55;6.38;;;5.05;;
18316;SDS011;9284;52.298;21.164;2023-08-17T10:57:28;8.23;;;4.72;;
18316;SDS011;9284;52.298;21.164;2023-08-17T11:00:18;6.03;;;4.22;;
18316;SDS011;9284;52.298;21.164;2023-08-17T11:02:55;9.18;;;4.60;;
18316;SDS011;9284;52.298;21.164;2023-08-17T11:05:35;4.40;;;4.00;;
18316;SDS011;9284;52.298;21.164;2023-08-17T11:08:05;8.70;;;4.38;;
18316;SDS011;9284;52.298;21.164;2023-08-17T11:10:35;4.60;;;4.20;;
18316;SDS011;9284;52.298;21.164;2023-08-17T11:13:05;6.40;;;4.20;;
18316;SDS011;9284;52.298;21.164;2023-08-17T11:15:40;6.47;;;3.95;;
18316;SDS011;9284;52.298;21.164;2023-08-17T11:18:11;4.88;;;3.90;;
18316;SDS011;9284;52.298;21.164;2023-08-17T11:20:40;4.85;;;3.75;;
18316;SDS011;9284;52.298;21.164;2023-08-17T11:23:10;4.53;;;3.10;;
18316;SDS011;9284;52.298;21.164;2023-08-17T11:25:39;6.10;;;2.88;;
18316;SDS011;9284;52.298;21.164;2023-08-17T11:28:09;3.78;;;2.78;;
18316;SDS011;9284;52.298;21.164;2023-08-17T11:30:39;4.53;;;2.83;;
18316;SDS011;9284;52.298;21.164;2023-08-17T11:33:12;5.85;;;3.10;;
18316;SDS011;9284;52.298;21.164;2023-08-17T11:35:41;4.25;;;3.08;;
18316;SDS011;9284;52.298;21.164;2023-08-17T11:38:09;5.07;;;4.10;;
18316;SDS011;9284;52.298;21.164;2023-08-17T11:40:38;4.75;;;3.08;;
18316;SDS011;9284;52.298;21.164;2023-08-17T11:43:06;3.40;;;3.05;;
18316;SDS011;9284;52.298;21.164;2023-08-17T11:45:35;5.40;;;3.85;;
18316;SDS011;9284;52.298;21.164;2023-08-17T11:48:05;4.53;;;3.70;;
18316;SDS011;9284;52.298;21.164;2023-08-17T11:50:34;7.28;;;3.67;;
18316;SDS011;9284;52.298;21.164;2023-08-17T11:53:05;4.45;;;3.28;;
18316;SDS011;9284;52.298;21.164;2023-08-17T11:55:34;4.18;;;3.10;;
18316;SDS011;9284;52.298;21.164;2023-08-17T11:58:02;8.30;;;3.70;;
18316;SDS011;9284;52.298;21.164;2023-08-17T12:00:36;10.38;;;4.88;;
18316;SDS011;9284;52.298;21.164;2023-08-17T12:03:12;8.90;;;5.03;;
18316;SDS011;9284;52.298;21.164;2023-08-17T12:05:43;8.90;;;4.50;;
18316;SDS011;9284;52.298;21.164;2023-08-17T12:08:12;6.70;;;3.83;;
18316;SDS011;9284;52.298;21.164;2023-08-17T12:10:42;4.57;;;3.85;;
18316;SDS011;9284;52.298;21.164;2023-08-17T12:13:13;5.00;;;3.53;;
18316;SDS011;9284;52.298;21.164;2023-08-17T12:15:42;6.45;;;3.60;;
18316;SDS011;9284;52.298;21.164;2023-08-17T12:18:12;4.35;;;3.55;;
18316;SDS011;9284;52.298;21.164;2023-08-17T12:20:44;3.45;;;3.13;;
18316;SDS011;9284;52.298;21.164;2023-08-17T12:23:20;7.25;;;3.85;;
18316;SDS011;9284;52.298;21.164;2023-08-17T12:25:52;5.28;;;3.75;;
18316;SDS011;9284;52.298;21.164;2023-08-17T12:28:22;3.90;;;3.50;;
18316;SDS011;9284;52.298;21.164;2023-08-17T12:30:57;6.55;;;3.80;;
18316;SDS011;9284;52.298;21.164;2023-08-17T12:33:28;7.15;;;4.07;;
18316;SDS011;9284;52.298;21.164;2023-08-17T12:35:56;4.80;;;3.53;;
18316;SDS011;9284;52.298;21.164;2023-08-17T12:38:25;5.70;;;3.80;;
18316;SDS011;9284;52.298;21.164;2023-08-17T12:40:53;6.78;;;3.75;;
18316;SDS011;9284;52.298;21.164;2023-08-17T12:43:22;6.50;;;3.90;;
18316;SDS011;9284;52.298;21.164;2023-08-17T12:45:50;6.10;;;4.13;;
18316;SDS011;9284;52.298;21.164;2023-08-17T12:48:19;7.00;;;4.20;;
18316;SDS011;9284;52.298;21.164;2023-08-17T12:50:48;5.00;;;3.72;;
18316;SDS011;9284;52.298;21.164;2023-08-17T12:53:17;8.05;;;4.28;;
18316;SDS011;9284;52.298;21.164;2023-08-17T12:55:45;5.43;;;4.43;;
18316;SDS011;9284;52.298;21.164;2023-08-17T12:58:14;4.72;;;3.97;;
18316;SDS011;9284;52.298;21.164;2023-08-17T13:00:42;6.15;;;4.50;;
18316;SDS011;9284;52.298;21.164;2023-08-17T13:03:11;7.20;;;5.05;;
18316;SDS011;9284;52.298;21.164;2023-08-17T13:05:41;9.43;;;4.90;;
18316;SDS011;9284;52.298;21.164;2023-08-17T13:08:11;6.95;;;5.07;;
18316;SDS011;9284;52.298;21.164;2023-08-17T13:10:39;7.25;;;5.10;;
18316;SDS011;9284;52.298;21.164;2023-08-17T13:13:08;8.38;;;5.10;;
18316;SDS011;9284;52.298;21.164;2023-08-17T13:15:36;5.72;;;4.95;;
18316;SDS011;9284;52.298;21.164;2023-08-17T13:18:04;7.57;;;4.80;;
18316;SDS011;9284;52.298;21.164;2023-08-17T13:20:33;6.05;;;4.28;;
18316;SDS011;9284;52.298;21.164;2023-08-17T13:23:03;6.53;;;4.50;;
18316;SDS011;9284;52.298;21.164;2023-08-17T13:25:33;10.00;;;4.90;;
18316;SDS011;9284;52.298;21.164;2023-08-17T13:28:01;8.43;;;4.70;;
18316;SDS011;9284;52.298;21.164;2023-08-17T13:30:30;8.20;;;4.68;;
18316;SDS011;9284;52.298;21.164;2023-08-17T13:32:58;6.80;;;4.35;;
18316;SDS011;9284;52.298;21.164;2023-08-17T13:35:27;8.75;;;4.70;;
18316;SDS011;9284;52.298;21.164;2023-08-17T13:37:55;7.45;;;4.10;;
18316;SDS011;9284;52.298;21.164;2023-08-17T13:40:25;7.43;;;4.55;;
18316;SDS011;9284;52.298;21.164;2023-08-17T13:42:55;12.60;;;4.55;;
18316;SDS011;9284;52.298;21.164;2023-08-17T13:45:24;6.18;;;3.97;;
18316;SDS011;9284;52.298;21.164;2023-08-17T13:47:53;7.88;;;4.53;;
18316;SDS011;9284;52.298;21.164;2023-08-17T13:50:22;6.63;;;4.45;;
18316;SDS011;9284;52.298;21.164;2023-08-17T13:52:50;6.65;;;4.60;;
18316;SDS011;9284;52.298;21.164;2023-08-17T13:55:18;8.18;;;4.43;;
18316;SDS011;9284;52.298;21.164;2023-08-17T13:57:47;8.05;;;4.80;;
18316;SDS011;9284;52.298;21.164;2023-08-17T14:00:17;5.75;;;4.28;;
18316;SDS011;9284;52.298;21.164;2023-08-17T14:02:45;5.90;;;4.40;;
18316;SDS011;9284;52.298;21.164;2023-08-17T14:05:13;9.88;;;3.97;;
18316;SDS011;9284;52.298;21.164;2023-08-17T14:07:42;5.35;;;3.88;;
18316;SDS011;9284;52.298;21.164;2023-08-17T14:10:10;5.40;;;3.90;;
18316;SDS011;9284;52.298;21.164;2023-08-17T14:12:54;5.32;;;3.85;;
18316;SDS011;9284;52.298;21.164;2023-08-17T14:15:24;6.13;;;3.75;;
18316;SDS011;9284;52.298;21.164;2023-08-17T14:17:52;5.78;;;4.10;;
18316;SDS011;9284;52.298;21.164;2023-08-17T14:20:21;8.38;;;4.60;;
18316;SDS011;9284;52.298;21.164;2023-08-17T14:22:49;5.97;;;4.00;;
18316;SDS011;9284;52.298;21.164;2023-08-17T14:25:18;4.35;;;3.78;;
18316;SDS011;9284;52.298;21.164;2023-08-17T14:27:46;4.50;;;3.60;;
18316;SDS011;9284;52.298;21.164;2023-08-17T14:30:14;5.20;;;3.35;;
18316;SDS011;9284;52.298;21.164;2023-08-17T14:32:44;8.73;;;3.72;;
18316;SDS011;9284;52.298;21.164;2023-08-17T14:35:12;4.10;;;3.70;;
18316;SDS011;9284;52.298;21.164;2023-08-17T14:37:41;4.70;;;3.65;;
18316;SDS011;9284;52.298;21.164;2023-08-17T14:40:09;6.50;;;4.00;;
18316;SDS011;9284;52.298;21.164;2023-08-17T14:42:38;6.68;;;3.70;;
18316;SDS011;9284;52.298;21.164;2023-08-17T14:45:07;6.47;;;3.75;;
18316;SDS011;9284;52.298;21.164;2023-08-17T14:47:36;4.30;;;3.50;;
18316;SDS011;9284;52.298;21.164;2023-08-17T14:50:06;7.90;;;3.70;;
18316;SDS011;9284;52.298;21.164;2023-08-17T14:52:35;5.45;;;3.78;;